createdAt,value
2022-09-30T00:00:56.236Z,10.07
2022-09-30T00:02:57.685Z,10.05
2022-09-30T00:04:59.163Z,10.00
2022-09-30T00:07:00.744Z,9.93
2022-09-30T00:09:02.547Z,9.88
2022-09-30T00:11:07.916Z,9.84
2022-09-30T00:13:09.347Z,9.80
2022-09-30T00:15:11.096Z,9.79
2022-09-30T00:17:12.530Z,9.75
2022-09-30T00:19:14.457Z,9.72
2022-09-30T00:21:17.178Z,9.68
2022-09-30T00:23:19.648Z,9.66
2022-09-30T00:25:21.080Z,9.63
2022-09-30T00:27:22.558Z,9.62
2022-09-30T00:29:24.034Z,9.64
2022-09-30T00:31:30.138Z,9.67
2022-09-30T00:33:31.851Z,9.70
2022-09-30T00:35:33.741Z,9.75
2022-09-30T00:37:35.205Z,9.77
2022-09-30T00:39:37.531Z,9.80
2022-09-30T00:41:39.498Z,9.78
2022-09-30T00:43:51.503Z,9.78
2022-09-30T00:45:59.234Z,9.79
2022-09-30T00:48:11.051Z,9.80
2022-09-30T00:50:12.505Z,9.80
2022-09-30T00:52:14.016Z,9.82
2022-09-30T00:54:21.366Z,9.83
2022-09-30T00:56:31.491Z,9.83
2022-09-30T00:58:40.006Z,9.80
2022-09-30T01:00:41.643Z,9.76
2022-09-30T01:02:43.169Z,9.75
2022-09-30T01:04:46.352Z,9.73
2022-09-30T01:06:48.499Z,9.70
2022-09-30T01:08:50.583Z,9.70
2022-09-30T01:10:52.016Z,9.69
2022-09-30T01:12:53.822Z,9.69
2022-09-30T01:14:58.041Z,9.68
2022-09-30T01:17:18.319Z,9.67
2022-09-30T01:19:36.653Z,9.65
2022-09-30T01:22:06.910Z,9.63
2022-09-30T01:25:00.565Z,9.60
2022-09-30T01:27:07.814Z,9.60
2022-09-30T01:29:48.320Z,9.58
2022-09-30T01:32:19.579Z,9.55
2022-09-30T01:34:37.717Z,9.57
2022-09-30T01:37:20.429Z,9.55
2022-09-30T01:39:27.255Z,9.55
2022-09-30T01:41:54.580Z,9.54
2022-09-30T01:44:12.305Z,9.50
2022-09-30T01:46:34.142Z,9.47
2022-09-30T01:48:49.190Z,9.47
2022-09-30T01:50:56.594Z,9.43
2022-09-30T01:53:07.967Z,9.38
2022-09-30T01:55:14.062Z,9.31
2022-09-30T01:57:28.786Z,9.25
2022-09-30T01:59:37.783Z,9.25
2022-09-30T02:01:48.174Z,9.27
2022-09-30T02:03:55.819Z,9.32
2022-09-30T02:06:04.127Z,9.33
2022-09-30T02:08:44.273Z,9.30
2022-09-30T02:10:53.196Z,9.30
2022-09-30T02:13:22.002Z,9.27
2022-09-30T02:15:30.914Z,9.24
2022-09-30T02:17:40.611Z,9.22
2022-09-30T02:19:59.109Z,9.19
2022-09-30T02:22:10.468Z,9.19
2022-09-30T02:24:17.254Z,9.17
2022-09-30T02:26:26.917Z,9.11
2022-09-30T02:28:29.273Z,9.06
2022-09-30T02:30:35.842Z,9.04
2022-09-30T02:33:06.847Z,9.01
2022-09-30T02:35:23.596Z,9.00
2022-09-30T02:37:32.024Z,8.96
2022-09-30T02:40:00.438Z,8.93
2022-09-30T02:42:12.363Z,8.95
2022-09-30T02:44:14.890Z,8.96
2022-09-30T02:46:48.785Z,8.93
2022-09-30T02:49:01.631Z,8.90
2022-09-30T02:51:18.485Z,8.89
2022-09-30T02:53:32.627Z,8.89
2022-09-30T02:55:40.249Z,8.87
2022-09-30T02:58:00.872Z,8.81
2022-09-30T03:00:03.509Z,8.76
2022-09-30T03:02:05.620Z,8.75
2022-09-30T03:04:10.000Z,8.73
2022-09-30T03:06:12.390Z,8.65
2022-09-30T03:08:14.097Z,8.62
2022-09-30T03:10:18.744Z,8.62
2022-09-30T03:12:32.828Z,8.61
2022-09-30T03:15:03.501Z,8.62
2022-09-30T03:17:38.880Z,8.61
2022-09-30T03:19:49.245Z,8.61
2022-09-30T03:22:24.669Z,8.55
2022-09-30T03:24:47.161Z,8.48
2022-09-30T03:27:00.007Z,8.44
2022-09-30T03:29:24.171Z,8.41
2022-09-30T03:31:39.321Z,8.36
2022-09-30T03:34:09.274Z,8.33
2022-09-30T03:36:41.996Z,8.30
2022-09-30T03:39:07.969Z,8.28
2022-09-30T03:41:22.750Z,8.25
2022-09-30T03:43:36.629Z,8.22
2022-09-30T03:46:05.087Z,8.21
2022-09-30T03:48:11.459Z,8.23
2022-09-30T03:50:19.025Z,8.24
2022-09-30T03:52:21.313Z,8.22
2022-09-30T03:54:22.960Z,8.18
2022-09-30T03:56:30.050Z,8.14
2022-09-30T03:58:31.492Z,8.13
2022-09-30T04:00:33.212Z,8.14
2022-09-30T04:02:36.742Z,8.13
2022-09-30T04:04:38.176Z,8.11
2022-09-30T04:06:39.632Z,8.10
2022-09-30T04:08:41.094Z,8.09
2022-09-30T04:10:46.615Z,8.09
2022-09-30T04:12:48.096Z,8.10
2022-09-30T04:14:49.626Z,8.12
2022-09-30T04:16:53.954Z,8.17
2022-09-30T04:18:56.786Z,8.19
2022-09-30T04:20:59.209Z,8.18
2022-09-30T04:23:01.658Z,8.17
2022-09-30T04:25:03.216Z,8.13
2022-09-30T04:27:04.950Z,8.10
2022-09-30T04:29:06.378Z,8.10
2022-09-30T04:31:08.484Z,8.11
2022-09-30T04:33:10.594Z,8.09
2022-09-30T04:35:13.583Z,8.09
2022-09-30T04:37:15.698Z,8.09
2022-09-30T04:39:17.237Z,8.09
2022-09-30T04:41:18.954Z,8.07
2022-09-30T04:43:22.300Z,8.05
2022-09-30T04:45:24.510Z,8.01
2022-09-30T04:47:26.000Z,7.97
2022-09-30T04:49:27.472Z,7.97
2022-09-30T04:51:29.981Z,7.96
2022-09-30T04:53:31.406Z,7.95
2022-09-30T04:55:32.963Z,7.94
2022-09-30T04:57:34.456Z,7.91
2022-09-30T04:59:36.741Z,7.90
2022-09-30T05:01:39.395Z,7.87
2022-09-30T05:03:41.583Z,7.86
2022-09-30T05:05:44.457Z,7.85
2022-09-30T05:07:46.013Z,7.80
2022-09-30T05:09:47.715Z,7.77
2022-09-30T05:11:49.504Z,7.75
2022-09-30T05:13:51.084Z,7.76
2022-09-30T05:15:53.002Z,7.78
2022-09-30T05:17:54.505Z,7.80
2022-09-30T05:19:56.225Z,7.79
2022-09-30T05:21:57.816Z,7.78
2022-09-30T05:23:59.266Z,7.77
2022-09-30T05:26:01.773Z,7.78
2022-09-30T05:28:03.210Z,7.79
2022-09-30T05:30:06.560Z,7.79
2022-09-30T05:32:07.975Z,7.77
2022-09-30T05:34:09.534Z,7.79
2022-09-30T05:36:14.475Z,7.82
2022-09-30T05:38:15.915Z,7.87
2022-09-30T05:40:17.689Z,7.89
2022-09-30T05:42:19.115Z,7.90
2022-09-30T05:44:21.486Z,7.91
2022-09-30T05:46:22.981Z,7.92
2022-09-30T05:48:25.683Z,7.94
2022-09-30T05:50:27.526Z,7.96
2022-09-30T05:52:28.984Z,8.00
2022-09-30T05:54:30.412Z,8.02
2022-09-30T05:56:31.906Z,8.03
2022-09-30T05:58:33.683Z,8.02
2022-09-30T06:00:35.111Z,8.00
2022-09-30T06:02:38.539Z,7.96
2022-09-30T06:04:40.123Z,7.93
2022-09-30T06:06:41.580Z,7.91
2022-09-30T06:08:43.806Z,7.94
2022-09-30T06:10:45.613Z,7.93
2022-09-30T06:12:47.035Z,7.94
2022-09-30T06:14:48.508Z,7.98
2022-09-30T06:16:50.064Z,8.03
2022-09-30T06:18:51.830Z,8.07
2022-09-30T06:20:57.978Z,8.14
2022-09-30T06:23:00.575Z,8.19
2022-09-30T06:25:06.491Z,8.26
2022-09-30T06:27:08.162Z,8.32
2022-09-30T06:29:09.731Z,8.37
2022-09-30T06:31:11.640Z,8.41
2022-09-30T06:33:14.809Z,8.47
2022-09-30T06:35:16.879Z,8.54
2022-09-30T06:37:18.569Z,8.60
2022-09-30T06:39:20.734Z,8.65
2022-09-30T06:41:27.507Z,8.67
2022-09-30T06:43:29.302Z,8.70
2022-09-30T06:45:33.412Z,8.73
2022-09-30T06:47:35.015Z,8.77
2022-09-30T06:49:46.315Z,8.82
2022-09-30T06:51:51.367Z,8.88
2022-09-30T06:53:54.146Z,8.92
2022-09-30T06:55:57.148Z,8.98
2022-09-30T06:57:58.971Z,9.01
2022-09-30T07:00:01.334Z,9.06
2022-09-30T07:02:02.882Z,9.09
2022-09-30T07:04:09.460Z,9.16
2022-09-30T07:06:13.927Z,9.21
2022-09-30T07:08:15.844Z,9.25
2022-09-30T07:10:17.348Z,9.30
2022-09-30T07:12:18.769Z,9.33
2022-09-30T07:14:20.972Z,9.39
2022-09-30T07:16:22.512Z,9.43
2022-09-30T07:18:25.244Z,9.48
2022-09-30T07:20:26.667Z,9.53
2022-09-30T07:22:29.960Z,9.59
2022-09-30T07:24:31.595Z,9.63
2022-09-30T07:26:33.384Z,9.68
2022-09-30T07:28:36.433Z,9.73
2022-09-30T07:30:43.485Z,9.77
2022-09-30T07:32:44.934Z,9.81
2022-09-30T07:34:46.428Z,9.85
2022-09-30T07:36:49.431Z,9.88
2022-09-30T07:38:51.879Z,9.95
2022-09-30T07:41:04.959Z,10.02
2022-09-30T07:43:06.373Z,10.07
2022-09-30T07:45:08.344Z,10.12
2022-09-30T07:47:14.929Z,10.18
2022-09-30T07:49:24.609Z,10.25
2022-09-30T07:51:30.173Z,10.30
2022-09-30T07:53:31.651Z,10.35
2022-09-30T07:55:34.038Z,10.41
2022-09-30T07:57:35.715Z,10.48
2022-09-30T07:59:39.983Z,10.53
2022-09-30T08:01:41.804Z,10.57
2022-09-30T08:03:45.017Z,10.61
2022-09-30T08:05:48.495Z,10.64
2022-09-30T08:07:49.928Z,10.69
2022-09-30T08:09:51.462Z,10.75
2022-09-30T08:11:53.804Z,10.79
2022-09-30T08:13:56.868Z,10.81
2022-09-30T08:15:58.397Z,10.87
2022-09-30T08:17:59.854Z,10.93
2022-09-30T08:20:01.489Z,11.00
2022-09-30T08:24:10.634Z,11.12
2022-09-30T08:26:13.083Z,11.18
2022-09-30T08:28:14.979Z,11.25
2022-09-30T08:30:16.817Z,11.31
2022-09-30T08:32:18.299Z,11.38
2022-09-30T08:34:19.826Z,11.43
2022-09-30T08:36:24.107Z,11.49
2022-09-30T08:38:25.553Z,11.53
2022-09-30T08:40:39.239Z,11.61
2022-09-30T08:42:51.635Z,11.67
2022-09-30T08:45:08.644Z,11.73
2022-09-30T08:47:10.008Z,11.82
2022-09-30T08:49:35.575Z,11.88
2022-09-30T08:51:42.464Z,11.94
2022-09-30T08:53:46.851Z,11.97
2022-09-30T08:55:48.401Z,11.96
2022-09-30T08:57:51.816Z,12.03
2022-09-30T08:59:59.226Z,12.08
2022-09-30T09:02:20.970Z,12.16
2022-09-30T09:04:22.502Z,12.21
2022-09-30T09:06:36.795Z,12.25
2022-09-30T09:08:58.457Z,12.31
2022-09-30T09:11:17.861Z,12.34
2022-09-30T09:13:25.174Z,12.38
2022-09-30T09:15:47.932Z,12.41
2022-09-30T09:18:24.311Z,12.48
2022-09-30T09:20:37.695Z,12.54
2022-09-30T09:22:39.342Z,12.57
2022-09-30T09:24:46.154Z,12.62
2022-09-30T09:26:49.453Z,12.68
2022-09-30T09:29:12.749Z,12.75
2022-09-30T09:31:17.660Z,12.84
2022-09-30T09:33:22.926Z,12.90
2022-09-30T09:35:30.382Z,12.97
2022-09-30T09:38:24.979Z,13.01
2022-09-30T09:40:44.963Z,13.01
2022-09-30T09:43:05.276Z,13.05
2022-09-30T09:45:18.308Z,13.09
2022-09-30T09:47:20.196Z,13.13
2022-09-30T09:49:23.437Z,13.19
2022-09-30T09:51:32.643Z,13.26
2022-09-30T09:53:47.213Z,13.30
2022-09-30T09:55:54.261Z,13.37
2022-09-30T09:58:06.959Z,13.48
2022-09-30T10:00:48.048Z,13.57
2022-09-30T10:03:06.519Z,13.64
2022-09-30T10:05:26.206Z,13.68
2022-09-30T10:07:29.129Z,13.74
2022-09-30T10:09:35.091Z,13.79
2022-09-30T10:11:36.543Z,13.87
2022-09-30T10:13:38.014Z,13.94
2022-09-30T10:15:42.767Z,14.02
2022-09-30T10:17:52.365Z,14.09
2022-09-30T10:19:59.799Z,14.14
2022-09-30T10:22:11.865Z,14.20
2022-09-30T10:24:31.364Z,14.30
2022-09-30T10:26:47.726Z,14.42
2022-09-30T10:29:01.143Z,14.49
2022-09-30T10:31:23.928Z,14.58
2022-09-30T10:33:33.980Z,14.71
2022-09-30T10:35:35.454Z,14.86
2022-09-30T10:37:37.069Z,15.02
2022-09-30T10:39:41.794Z,15.21
2022-09-30T10:41:43.260Z,15.30
2022-09-30T10:43:51.615Z,15.47
2022-09-30T10:46:20.910Z,15.67
2022-09-30T10:48:20.654Z,15.94
2022-09-30T10:50:26.829Z,16.19
2022-09-30T10:52:33.110Z,16.45
2022-09-30T10:54:45.311Z,16.93
2022-09-30T10:56:52.021Z,17.49
2022-09-30T10:58:56.459Z,17.87
2022-09-30T11:01:16.281Z,18.17
2022-09-30T11:03:25.024Z,18.36
2022-09-30T11:05:34.133Z,18.11
2022-09-30T11:07:54.868Z,18.08
2022-09-30T11:10:07.793Z,18.16
2022-09-30T11:12:36.805Z,18.15
2022-09-30T11:14:56.527Z,18.46
2022-09-30T11:17:09.440Z,18.83
2022-09-30T11:19:17.359Z,19.04
2022-09-30T11:21:43.324Z,19.18
2022-09-30T11:23:58.028Z,19.41
2022-09-30T11:25:59.454Z,19.63
2022-09-30T11:28:22.180Z,19.68
2022-09-30T11:30:38.718Z,19.34
2022-09-30T11:33:04.378Z,19.13
2022-09-30T11:35:15.168Z,19.22
2022-09-30T11:37:40.686Z,19.48
2022-09-30T11:40:07.279Z,19.22
2022-09-30T11:42:22.372Z,19.10
2022-09-30T11:44:37.663Z,19.11
2022-09-30T11:47:04.877Z,18.97
2022-09-30T11:49:34.281Z,18.72
2022-09-30T11:52:00.891Z,18.42
2022-09-30T11:54:39.221Z,18.19
2022-09-30T11:56:50.423Z,18.01
2022-09-30T11:58:57.506Z,17.72
2022-09-30T12:01:10.140Z,17.58
2022-09-30T12:03:22.888Z,17.40
2022-09-30T12:05:30.338Z,17.16
2022-09-30T12:07:46.128Z,16.92
2022-09-30T12:10:03.520Z,16.89
2022-09-30T12:12:16.067Z,17.07
2022-09-30T12:14:26.211Z,17.08
2022-09-30T12:16:32.025Z,17.11
2022-09-30T12:18:40.064Z,16.99
2022-09-30T12:23:19.731Z,16.84
2022-09-30T12:25:26.821Z,16.82
2022-09-30T12:27:48.486Z,16.80
2022-09-30T12:30:19.127Z,16.76
2022-09-30T12:32:54.684Z,16.71
2022-09-30T12:35:02.284Z,16.76
2022-09-30T12:37:37.218Z,16.71
2022-09-30T12:39:38.634Z,16.49
2022-09-30T12:41:49.302Z,16.35
2022-09-30T12:44:16.721Z,16.24
2022-09-30T12:46:33.160Z,16.21
2022-09-30T12:48:46.154Z,16.19
2022-09-30T12:50:54.700Z,16.20
2022-09-30T12:52:57.496Z,16.12
2022-09-30T12:55:05.719Z,16.15
2022-09-30T12:57:09.262Z,16.14
2022-09-30T12:59:11.341Z,16.14
2022-09-30T13:01:18.988Z,16.24
2022-09-30T13:03:20.573Z,16.42
2022-09-30T13:05:31.251Z,16.45
2022-09-30T13:07:33.411Z,16.36
2022-09-30T13:09:37.494Z,16.28
2022-09-30T13:11:44.183Z,16.25
2022-09-30T13:14:15.335Z,16.15
2022-09-30T13:16:56.322Z,16.12
2022-09-30T13:19:01.797Z,16.16
2022-09-30T13:21:06.650Z,16.16
2022-09-30T13:23:47.205Z,16.15
2022-09-30T13:25:54.885Z,16.15
2022-09-30T13:28:14.559Z,16.13
2022-09-30T13:30:16.075Z,16.14
2022-09-30T13:32:32.899Z,16.13
2022-09-30T13:34:49.525Z,16.09
2022-09-30T13:36:50.894Z,16.08
2022-09-30T13:39:07.437Z,16.06
2022-09-30T13:41:22.655Z,16.05
2022-09-30T13:43:32.444Z,16.03
2022-09-30T13:45:39.579Z,16.05
2022-09-30T13:47:49.457Z,16.09
2022-09-30T13:50:14.609Z,16.10
2022-09-30T13:52:26.039Z,16.13
2022-09-30T13:54:34.063Z,16.16
2022-09-30T13:56:40.136Z,16.22
2022-09-30T13:59:06.653Z,16.26
2022-09-30T14:01:45.367Z,16.27
2022-09-30T14:03:55.574Z,16.27
2022-09-30T14:06:19.331Z,16.30
2022-09-30T14:08:26.832Z,16.29
2022-09-30T14:11:02.510Z,16.24
2022-09-30T14:13:18.892Z,16.15
2022-09-30T14:15:21.058Z,16.08
2022-09-30T14:17:37.353Z,16.05
2022-09-30T14:19:58.347Z,16.07
2022-09-30T14:22:05.783Z,16.12
2022-09-30T14:24:15.012Z,16.17
2022-09-30T14:26:58.446Z,16.19
2022-09-30T14:29:40.727Z,16.16
2022-09-30T14:31:46.603Z,16.18
2022-09-30T14:33:50.143Z,16.16
2022-09-30T14:35:54.513Z,16.17
2022-09-30T14:38:13.064Z,16.18
2022-09-30T14:40:19.202Z,16.11
2022-09-30T14:42:31.995Z,16.10
2022-09-30T14:44:36.194Z,16.08
2022-09-30T14:46:40.957Z,16.09
2022-09-30T14:48:45.707Z,16.09
2022-09-30T14:51:04.165Z,16.06
2022-09-30T14:53:05.671Z,16.00
2022-09-30T14:55:23.407Z,16.02
2022-09-30T14:57:25.196Z,16.03
2022-09-30T14:59:29.673Z,16.02
2022-09-30T15:01:35.317Z,16.00
2022-09-30T15:03:40.043Z,16.02
2022-09-30T15:05:41.579Z,16.03
2022-09-30T15:07:43.092Z,16.05
2022-09-30T15:09:46.152Z,16.04
2022-09-30T15:11:48.460Z,16.04
2022-09-30T15:13:53.411Z,16.02
2022-09-30T15:15:55.069Z,16.00
2022-09-30T15:17:56.918Z,15.96
2022-09-30T15:19:59.085Z,15.93
2022-09-30T15:22:06.340Z,15.93
2022-09-30T15:24:10.958Z,15.91
2022-09-30T15:26:13.401Z,15.89
2022-09-30T15:28:14.904Z,15.87
2022-09-30T15:30:17.194Z,15.87
2022-09-30T15:32:23.465Z,15.85
2022-09-30T15:34:25.970Z,15.81
2022-09-30T15:36:27.660Z,15.77
2022-09-30T15:38:31.474Z,15.77
2022-09-30T15:40:49.944Z,15.73
2022-09-30T15:43:02.832Z,15.64
2022-09-30T15:45:32.070Z,15.62
2022-09-30T15:48:03.928Z,15.57
2022-09-30T15:50:05.735Z,15.53
2022-09-30T15:52:30.649Z,15.46
2022-09-30T15:54:37.955Z,15.45
2022-09-30T15:56:39.401Z,15.38
2022-09-30T15:58:42.346Z,15.38
2022-09-30T16:00:45.314Z,15.36
2022-09-30T16:02:46.903Z,15.32
2022-09-30T16:04:53.361Z,15.29
2022-09-30T16:07:08.733Z,15.24
2022-09-30T16:09:32.297Z,15.20
2022-09-30T16:11:42.079Z,15.15
2022-09-30T16:13:45.267Z,15.16
2022-09-30T16:15:47.934Z,15.17
2022-09-30T16:17:50.048Z,15.08
2022-09-30T16:19:57.968Z,15.02
2022-09-30T16:22:00.168Z,14.97
2022-09-30T16:24:01.685Z,14.92
2022-09-30T16:26:13.310Z,14.85
2022-09-30T16:28:15.424Z,14.76
2022-09-30T16:30:19.892Z,14.74
2022-09-30T16:32:21.692Z,14.64
2022-09-30T16:34:27.364Z,14.62
2022-09-30T16:36:29.111Z,14.57
2022-09-30T16:38:30.649Z,14.52
2022-09-30T16:40:33.476Z,14.50
2022-09-30T16:42:34.892Z,14.43
2022-09-30T16:44:37.707Z,14.38
2022-09-30T16:46:39.378Z,14.32
2022-09-30T16:48:40.879Z,14.32
2022-09-30T16:50:53.320Z,14.23
2022-09-30T16:52:55.079Z,14.19
2022-09-30T16:54:56.498Z,14.17
2022-09-30T16:57:00.335Z,14.14
2022-09-30T16:59:03.179Z,14.14
2022-09-30T17:01:04.942Z,14.14
2022-09-30T17:03:06.712Z,14.08
2022-09-30T17:05:13.231Z,14.00
2022-09-30T17:07:14.885Z,13.96
2022-09-30T17:09:16.353Z,13.93
2022-09-30T17:11:19.263Z,13.88
2022-09-30T17:13:20.710Z,13.84
2022-09-30T17:15:22.582Z,13.75
2022-09-30T17:17:24.698Z,13.68
2022-09-30T17:19:30.020Z,13.64
2022-09-30T17:21:31.441Z,13.63
2022-09-30T17:23:32.993Z,13.58
2022-09-30T17:25:40.045Z,13.54
2022-09-30T17:27:41.575Z,13.49
2022-09-30T17:29:43.012Z,13.44
2022-09-30T17:31:44.542Z,13.39
2022-09-30T17:33:45.994Z,13.32
2022-09-30T17:36:01.147Z,13.26
2022-09-30T17:38:09.154Z,13.20
2022-09-30T17:40:29.233Z,13.13
2022-09-30T17:42:49.067Z,13.05
2022-09-30T17:44:51.232Z,13.00
2022-09-30T17:47:00.100Z,12.95
2022-09-30T17:49:01.549Z,12.88
2022-09-30T17:51:03.040Z,12.85
2022-09-30T17:53:05.934Z,12.81
2022-09-30T17:55:07.645Z,12.76
2022-09-30T17:57:09.116Z,12.71
2022-09-30T17:59:10.572Z,12.67
2022-09-30T18:01:12.169Z,12.62
2022-09-30T18:03:13.735Z,12.56
2022-09-30T18:05:15.650Z,12.52
2022-09-30T18:07:17.073Z,12.48
2022-09-30T18:09:18.972Z,12.44
2022-09-30T18:11:26.019Z,12.40
2022-09-30T18:13:28.092Z,12.33
2022-09-30T18:15:29.706Z,12.30
2022-09-30T18:17:31.200Z,12.27
2022-09-30T18:19:33.145Z,12.22
2022-09-30T18:21:36.571Z,12.19
2022-09-30T18:23:38.083Z,12.13
2022-09-30T18:25:41.741Z,12.09
2022-09-30T18:27:43.226Z,12.04
2022-09-30T18:29:44.718Z,12.00
2022-09-30T18:31:46.314Z,11.94
2022-09-30T18:33:51.578Z,11.92
2022-09-30T18:35:53.237Z,11.89
2022-09-30T18:37:54.752Z,11.84
2022-09-30T18:39:56.181Z,11.81
2022-09-30T18:41:57.665Z,11.77
2022-09-30T18:44:02.559Z,11.72
2022-09-30T18:46:05.385Z,11.69
2022-09-30T18:48:07.725Z,11.64
2022-09-30T18:50:10.941Z,11.60
2022-09-30T18:52:12.459Z,11.56
2022-09-30T18:54:16.028Z,11.52
2022-09-30T18:56:21.718Z,11.49
2022-09-30T18:58:23.172Z,11.45
2022-09-30T19:00:24.688Z,11.44
2022-09-30T19:02:27.202Z,11.41
2022-09-30T19:04:29.049Z,11.38
2022-09-30T19:06:30.731Z,11.34
2022-09-30T19:08:32.216Z,11.30
2022-09-30T19:10:34.180Z,11.27
2022-09-30T19:12:37.895Z,11.24
2022-09-30T19:14:39.386Z,11.20
2022-09-30T19:16:42.003Z,11.17
2022-09-30T19:18:44.082Z,11.13
2022-09-30T19:20:45.573Z,11.09
2022-09-30T19:22:48.050Z,11.07
2022-09-30T19:24:49.501Z,11.04
2022-09-30T19:26:52.254Z,11.01
2022-09-30T19:28:54.812Z,10.98
2022-09-30T19:30:56.302Z,10.95
2022-09-30T19:33:01.303Z,10.95
2022-09-30T19:35:06.681Z,10.94
2022-09-30T19:37:16.274Z,10.93
2022-09-30T19:39:19.896Z,10.89
2022-09-30T19:41:23.786Z,10.90
2022-09-30T19:43:25.733Z,10.89
2022-09-30T19:45:28.076Z,10.91
2022-09-30T19:47:34.119Z,10.89
2022-09-30T19:49:36.070Z,10.88
2022-09-30T19:51:37.674Z,10.87
2022-09-30T19:53:42.570Z,10.86
2022-09-30T19:55:50.757Z,10.84
2022-09-30T19:57:52.493Z,10.80
2022-09-30T19:59:53.918Z,10.78
2022-09-30T20:01:55.516Z,10.79
2022-09-30T20:03:58.108Z,10.76
2022-09-30T20:06:05.773Z,10.74
2022-09-30T20:08:07.246Z,10.72
2022-09-30T20:10:09.226Z,10.70
2022-09-30T20:12:10.971Z,10.70
2022-09-30T20:14:30.842Z,10.67
2022-09-30T20:16:32.326Z,10.65
2022-09-30T20:18:35.069Z,10.64
2022-09-30T20:20:37.189Z,10.60
2022-09-30T20:22:38.861Z,10.59
2022-09-30T20:24:40.397Z,10.59
2022-09-30T20:26:43.368Z,10.58
2022-09-30T20:28:44.800Z,10.57
2022-09-30T20:30:47.038Z,10.56
2022-09-30T20:32:48.508Z,10.53
2022-09-30T20:34:49.971Z,10.52
2022-09-30T20:36:51.416Z,10.52
2022-09-30T20:38:54.268Z,10.53
2022-09-30T20:40:57.154Z,10.52
2022-09-30T20:43:04.036Z,10.49
2022-09-30T20:45:10.296Z,10.45
2022-09-30T20:47:12.008Z,10.43
2022-09-30T20:49:13.445Z,10.41
2022-09-30T20:51:18.169Z,10.41
2022-09-30T20:53:20.342Z,10.41
2022-09-30T20:55:21.790Z,10.42
2022-09-30T20:57:23.233Z,10.45
2022-09-30T20:59:24.751Z,10.45
2022-09-30T21:01:26.546Z,10.44
2022-09-30T21:03:30.065Z,10.45
2022-09-30T21:05:31.904Z,10.45
2022-09-30T21:07:35.427Z,10.47
2022-09-30T21:09:36.850Z,10.48
2022-09-30T21:11:40.991Z,10.47
2022-09-30T21:13:46.918Z,10.51
2022-09-30T21:15:57.367Z,10.51
2022-09-30T21:17:59.345Z,10.50
2022-09-30T21:20:01.108Z,10.52
2022-09-30T21:22:02.544Z,10.56
2022-09-30T21:24:04.138Z,10.55
2022-09-30T21:26:07.974Z,10.57
2022-09-30T21:28:09.464Z,10.59
2022-09-30T21:30:11.556Z,10.61
2022-09-30T21:32:13.158Z,10.65
2022-09-30T21:34:14.861Z,10.68
2022-09-30T21:36:16.313Z,10.70
2022-09-30T21:38:18.164Z,10.71
2022-09-30T21:40:19.610Z,10.72
2022-09-30T21:42:22.332Z,10.74
2022-09-30T21:44:25.587Z,10.74
2022-09-30T21:46:27.141Z,10.74
2022-09-30T21:48:30.460Z,10.74
2022-09-30T21:50:34.885Z,10.75
2022-09-30T21:52:38.034Z,10.75
2022-09-30T21:54:40.099Z,10.78
2022-09-30T21:56:42.931Z,10.82
2022-09-30T21:58:44.491Z,10.85
2022-09-30T22:00:47.038Z,10.86
2022-09-30T22:02:48.612Z,10.85
2022-09-30T22:04:50.052Z,10.85
2022-09-30T22:06:51.552Z,10.88
2022-09-30T22:08:52.972Z,10.91
2022-09-30T22:10:54.459Z,10.93
2022-09-30T22:12:55.913Z,10.95
2022-09-30T22:14:57.316Z,10.97
2022-09-30T22:16:59.415Z,10.99
2022-09-30T22:19:02.777Z,11.04
2022-09-30T22:21:07.451Z,11.10
2022-09-30T22:23:08.913Z,11.15
2022-09-30T22:25:10.439Z,11.15
2022-09-30T22:27:12.069Z,11.17
2022-09-30T22:29:13.652Z,11.19
2022-09-30T22:31:20.181Z,11.20
2022-09-30T22:33:40.398Z,11.20
2022-09-30T22:36:00.878Z,11.19
2022-09-30T22:38:17.502Z,11.22
2022-09-30T22:40:18.994Z,11.26
2022-09-30T22:42:20.434Z,11.28
2022-09-30T22:44:25.428Z,11.29
2022-09-30T22:46:26.930Z,11.31
2022-09-30T22:48:30.036Z,11.33
2022-09-30T22:50:35.408Z,11.33
2022-09-30T22:52:36.851Z,11.33
2022-09-30T22:54:38.333Z,11.34
2022-09-30T22:56:39.765Z,11.36
2022-09-30T22:58:41.189Z,11.36
2022-09-30T23:00:52.839Z,11.33
2022-09-30T23:02:55.479Z,11.32
2022-09-30T23:04:56.997Z,11.32
2022-09-30T23:06:58.532Z,11.32
2022-09-30T23:09:02.842Z,11.30
2022-09-30T23:11:04.356Z,11.30
2022-09-30T23:13:08.897Z,11.30
2022-09-30T23:15:10.540Z,11.32
2022-09-30T23:17:13.068Z,11.31
2022-09-30T23:19:14.543Z,11.33
2022-09-30T23:21:18.495Z,11.33
2022-09-30T23:23:20.071Z,11.32
2022-09-30T23:25:21.542Z,11.35
2022-09-30T23:27:23.030Z,11.38
2022-09-30T23:29:24.846Z,11.39
2022-09-30T23:31:26.894Z,11.38
2022-09-30T23:33:28.406Z,11.38
2022-09-30T23:35:29.856Z,11.38
2022-09-30T23:37:31.327Z,11.38
2022-09-30T23:39:32.797Z,11.39
2022-09-30T23:41:34.796Z,11.37
2022-09-30T23:43:37.103Z,11.38
2022-09-30T23:45:38.740Z,11.38
2022-09-30T23:47:40.185Z,11.36
2022-09-30T23:49:42.019Z,11.36
2022-09-30T23:51:43.622Z,11.37
2022-09-30T23:53:45.316Z,11.37
2022-09-30T23:55:58.996Z,11.38
2022-09-30T23:58:00.475Z,11.37
